Valor — WDD8691 — position and weather

sailwx.info

Track history (hours):
 
Tides and Currents Weather Stations Pressure Air Temp Water Temp Dewpoint Dewpoint Depression Visibility Wind Speed Wind Dir Waves Ship Positions

Valor

Owner: Crowley Marine Services, Seattle, WA. More information available from US FCC via Universal Licensing System and Coast Guard Vessel Documentation Center.

Last reported at 2016-Sep-25 04:33 UTC. Time now 2016-Sep-25 07:12 UTC.
Position N 37°49' W 122°19'.

Length 8 m; draft 5.5 m.

Type: Tug. MMSI: 367301480.

Date/timePositionNaut miles runAvg speedWind from/ knotsBaromVisibWave heightAir tempDewpointWater temp
2016-Sep-25 04:33N 37°49' W 122°19'2 0.4
2016-Sep-25 00:33N 37°48' W 122°18'7 3.7
2016-Sep-24 22:33N 37°54' W 122°23'1 1.0
2016-Sep-24 21:33N 37°55' W 122°22'2 0.9
2016-Sep-24 19:33N 37°55' W 122°25'0 0.0
2016-Sep-24 18:33N 37°55' W 122°25'7 6.8
2016-Sep-24 17:33N 38°02' W 122°22'6 1.2
2016-Sep-24 12:29N 38°03' W 122°15'0 0.0
2016-Sep-24 10:32N 38°03' W 122°15'0 0.0
2016-Sep-24 09:32N 38°03' W 122°15'6 1.0
2016-Sep-24 03:33N 38°02' W 122°08'1 0.2
2016-Sep-24 01:20N 38°02' W 122°08'5 0.9
2016-Sep-23 19:32N 38°04' W 122°15'3 0.2
2016-Sep-23 00:22N 38°03' W 122°10'7 8.9
2016-Sep-22 23:33N 38°03' W 122°20'16 5.2
2016-Sep-22 20:33N 37°49' W 122°29'7 0.9
2016-Sep-22 12:34N 37°49' W 122°19'1 0.1
2016-Sep-22 04:33N 37°49' W 122°19'0 0.0
2016-Sep-22 03:33N 37°49' W 122°19'8 2.5
2016-Sep-22 00:33N 37°55' W 122°25'3 2.8
2016-Sep-21 23:32N 37°57' W 122°27'5 5.5
2016-Sep-21 22:33N 37°52' W 122°24'5 1.8
2016-Sep-21 19:33N 37°49' W 122°19'9 2.9
2016-Sep-21 16:33N 37°48' W 122°29'8 1.1
2016-Sep-21 09:34N 37°49' W 122°20'5 5.0
2016-Sep-21 08:33N 37°49' W 122°26'6 2.0
2016-Sep-21 05:33N 37°55' W 122°27'16 8.0
2016-Sep-21 03:33N 38°02' W 122°08'0 0.4
2016-Sep-21 02:33N 38°02' W 122°08'23 2.5
2016-Sep-20 17:33N 37°48' W 122°30'8 2.5
2016-Sep-20 14:33N 37°48' W 122°21'0 0.2
2016-Sep-20 13:33N 37°48' W 122°21'1 0.3
2016-Sep-20 10:33N 37°48' W 122°20'0 0.2
2016-Sep-20 08:34N 37°48' W 122°19'2 1.5
2016-Sep-20 07:33N 37°49' W 122°19'0 0.0
2016-Sep-20 06:33N 37°49' W 122°19'0 0.0
2016-Sep-20 02:33N 37°49' W 122°19'6 2.0
2016-Sep-19 23:33N 37°55' W 122°22'7 1.8
2016-Sep-19 19:33N 37°50' W 122°28'3 2.8
2016-Sep-19 18:32N 37°52' W 122°27'4 1.8
2016-Sep-19 16:33N 37°56' W 122°25'11 2.2
2016-Sep-19 11:18N 38°03' W 122°15'7 4.0
2016-Sep-19 09:30N 38°01' W 122°23'14 7.1
2016-Sep-19 07:33N 37°48' W 122°29'1 1.2
2016-Sep-19 06:33N 37°49' W 122°28'3 1.2
2016-Sep-19 03:34N 37°48' W 122°24'0 0.0
2016-Sep-19 02:33N 37°48' W 122°24'4 1.9
2016-Sep-19 00:33N 37°48' W 122°19'2 0.3
2016-Sep-18 19:34N 37°49' W 122°19'0 0.0
2016-Sep-18 15:34N 37°49' W 122°19'0 0.0
2016-Sep-18 14:33N 37°49' W 122°19'4 1.1
2016-Sep-18 10:33N 37°49' W 122°24'10 9.6
2016-Sep-18 09:33N 37°59' W 122°25'6 0.3
2016-Sep-17 13:33N 37°53' W 122°25'6 6.5
2016-Sep-17 12:33N 37°48' W 122°19'3 1.6
2016-Sep-17 10:33N 37°49' W 122°23'5 4.8
2016-Sep-17 09:33N 37°53' W 122°25'8 8.4
2016-Sep-17 08:33N 38°02' W 122°22'8 8.2
2016-Sep-17 07:33N 38°03' W 122°12'4 1.8
2016-Sep-17 05:33N 38°02' W 122°08'7 6.8
2016-Sep-17 04:33N 38°04' W 122°16'16 4.1
2016-Sep-17 00:33N 37°48' W 122°23'7 1.0
2016-Sep-16 17:33N 37°55' W 122°25'1 0.4
2016-Sep-16 15:33N 37°55' W 122°25'0 0.0
2016-Sep-16 12:33N 37°55' W 122°25'0 0.0
2016-Sep-16 09:34N 37°55' W 122°25'0 0.0
2016-Sep-16 07:33N 37°55' W 122°25'0 0.0
2016-Sep-16 03:33N 37°55' W 122°25'0 0.5
2016-Sep-16 02:33N 37°56' W 122°25'0 0.2
2016-Sep-16 00:23N 37°55' W 122°25'0 0.0
2016-Sep-15 22:32N 37°55' W 122°25'0 0.0
2016-Sep-15 21:34N 37°55' W 122°25'7 6.9
2016-Sep-15 20:33N 38°02' W 122°22'7 0.9
2016-Sep-15 12:33N 37°55' W 122°25'0 0.0
2016-Sep-15 11:33N 37°55' W 122°25'  
Track history (hours):
 
Tides and Currents Weather Stations Pressure Air Temp Water Temp Dewpoint Dewpoint Depression Visibility Wind Speed Wind Dir Waves Ship Positions

Valor

Owner: Crowley Marine Services, Seattle, WA. More information available from US FCC via Universal Licensing System and Coast Guard Vessel Documentation Center.

Last reported at 2016-Sep-25 04:33 UTC. Time now 2016-Sep-25 07:12 UTC.
Position N 37°49' W 122°19'.

Length 8 m; draft 5.5 m.

Type: Tug. MMSI: 367301480.

Date/timePositionNaut miles runAvg speedWind from/ knotsBaromVisibWave heightAir tempDewpointWater temp
2016-Sep-25 04:33N 37°49' W 122°19'2 0.4
2016-Sep-25 00:33N 37°48' W 122°18'7 3.7
2016-Sep-24 22:33N 37°54' W 122°23'1 1.0
2016-Sep-24 21:33N 37°55' W 122°22'2 0.9
2016-Sep-24 19:33N 37°55' W 122°25'0 0.0
2016-Sep-24 18:33N 37°55' W 122°25'7 6.8
2016-Sep-24 17:33N 38°02' W 122°22'6 1.2
2016-Sep-24 12:29N 38°03' W 122°15'0 0.0
2016-Sep-24 10:32N 38°03' W 122°15'0 0.0
2016-Sep-24 09:32N 38°03' W 122°15'6 1.0
2016-Sep-24 03:33N 38°02' W 122°08'1 0.2
2016-Sep-24 01:20N 38°02' W 122°08'5 0.9
2016-Sep-23 19:32N 38°04' W 122°15'3 0.2
2016-Sep-23 00:22N 38°03' W 122°10'7 8.9
2016-Sep-22 23:33N 38°03' W 122°20'16 5.2
2016-Sep-22 20:33N 37°49' W 122°29'7 0.9
2016-Sep-22 12:34N 37°49' W 122°19'1 0.1
2016-Sep-22 04:33N 37°49' W 122°19'0 0.0
2016-Sep-22 03:33N 37°49' W 122°19'8 2.5
2016-Sep-22 00:33N 37°55' W 122°25'3 2.8
2016-Sep-21 23:32N 37°57' W 122°27'5 5.5
2016-Sep-21 22:33N 37°52' W 122°24'5 1.8
2016-Sep-21 19:33N 37°49' W 122°19'9 2.9
2016-Sep-21 16:33N 37°48' W 122°29'8 1.1
2016-Sep-21 09:34N 37°49' W 122°20'5 5.0
2016-Sep-21 08:33N 37°49' W 122°26'6 2.0
2016-Sep-21 05:33N 37°55' W 122°27'16 8.0
2016-Sep-21 03:33N 38°02' W 122°08'0 0.4
2016-Sep-21 02:33N 38°02' W 122°08'23 2.5
2016-Sep-20 17:33N 37°48' W 122°30'8 2.5
2016-Sep-20 14:33N 37°48' W 122°21'0 0.2
2016-Sep-20 13:33N 37°48' W 122°21'1 0.3
2016-Sep-20 10:33N 37°48' W 122°20'0 0.2
2016-Sep-20 08:34N 37°48' W 122°19'2 1.5
2016-Sep-20 07:33N 37°49' W 122°19'0 0.0
2016-Sep-20 06:33N 37°49' W 122°19'0 0.0
2016-Sep-20 02:33N 37°49' W 122°19'6 2.0
2016-Sep-19 23:33N 37°55' W 122°22'7 1.8
2016-Sep-19 19:33N 37°50' W 122°28'3 2.8
2016-Sep-19 18:32N 37°52' W 122°27'4 1.8
2016-Sep-19 16:33N 37°56' W 122°25'11 2.2
2016-Sep-19 11:18N 38°03' W 122°15'7 4.0
2016-Sep-19 09:30N 38°01' W 122°23'14 7.1
2016-Sep-19 07:33N 37°48' W 122°29'1 1.2
2016-Sep-19 06:33N 37°49' W 122°28'3 1.2
2016-Sep-19 03:34N 37°48' W 122°24'0 0.0
2016-Sep-19 02:33N 37°48' W 122°24'4 1.9
2016-Sep-19 00:33N 37°48' W 122°19'2 0.3
2016-Sep-18 19:34N 37°49' W 122°19'0 0.0
2016-Sep-18 15:34N 37°49' W 122°19'0 0.0
2016-Sep-18 14:33N 37°49' W 122°19'4 1.1
2016-Sep-18 10:33N 37°49' W 122°24'10 9.6
2016-Sep-18 09:33N 37°59' W 122°25'6 0.3
2016-Sep-17 13:33N 37°53' W 122°25'6 6.5
2016-Sep-17 12:33N 37°48' W 122°19'3 1.6
2016-Sep-17 10:33N 37°49' W 122°23'5 4.8
2016-Sep-17 09:33N 37°53' W 122°25'8 8.4
2016-Sep-17 08:33N 38°02' W 122°22'8 8.2
2016-Sep-17 07:33N 38°03' W 122°12'4 1.8
2016-Sep-17 05:33N 38°02' W 122°08'7 6.8
2016-Sep-17 04:33N 38°04' W 122°16'16 4.1
2016-Sep-17 00:33N 37°48' W 122°23'7 1.0
2016-Sep-16 17:33N 37°55' W 122°25'1 0.4
2016-Sep-16 15:33N 37°55' W 122°25'0 0.0
2016-Sep-16 12:33N 37°55' W 122°25'0 0.0
2016-Sep-16 09:34N 37°55' W 122°25'0 0.0
2016-Sep-16 07:33N 37°55' W 122°25'0 0.0
2016-Sep-16 03:33N 37°55' W 122°25'0 0.5
2016-Sep-16 02:33N 37°56' W 122°25'0 0.2
2016-Sep-16 00:23N 37°55' W 122°25'0 0.0
2016-Sep-15 22:32N 37°55' W 122°25'0 0.0
2016-Sep-15 21:34N 37°55' W 122°25'7 6.9
2016-Sep-15 20:33N 38°02' W 122°22'7 0.9
2016-Sep-15 12:33N 37°55' W 122°25'0 0.0
2016-Sep-15 11:33N 37°55' W 122°25'  

Dump ship's entire track history